Terminal Aerodrome Forecast
Issued by NWS

Home | Current Version | Previous Version | Text Only | Print | Product List | Glossary Off
Versions: 1 2 3 4 5 6 7 8 9 10 11 12 13

039
FTUS45 KGGW 212320
TAFSDY
TAF
KSDY 212320Z 2200/2224 VRB05KT P6SM BKN080
     FM221300 22008KT P6SM BKN070 WS020/27035KT
     FM221600 27012KT P6SM SCT040 WS020/29045KT
     FM221800 29016KT P6SM FEW130=

USA.gov is the U.S. government's official web portal to all federal, state and local government web resources and services.